createdAt,value
2019-04-02T00:14:33.219Z,70.10
2019-04-02T00:17:03.016Z,70.30
2019-04-02T00:19:32.835Z,70.30
2019-04-02T00:22:02.648Z,70.50
2019-04-02T00:24:32.401Z,70.20
2019-04-02T00:27:02.279Z,70.50
2019-04-02T00:29:31.998Z,70.20
2019-04-02T00:32:01.815Z,70.10
2019-04-02T00:34:31.615Z,70.50
2019-04-02T00:37:01.372Z,70.50
2019-04-02T00:39:31.093Z,70.60
2019-04-02T00:42:00.859Z,70.40
2019-04-02T00:44:30.675Z,70.30
2019-04-02T00:47:00.429Z,70.30
2019-04-02T00:49:30.225Z,70.10
2019-04-02T00:52:00.183Z,70.30
2019-04-02T00:54:31.090Z,69.90
2019-04-02T00:57:00.989Z,70.10
2019-04-02T00:59:30.714Z,69.80
2019-04-02T01:02:00.647Z,70.60
2019-04-02T01:04:30.531Z,69.80
2019-04-02T01:07:00.458Z,70.00
2019-04-02T01:09:30.322Z,69.80
2019-04-02T01:12:00.119Z,70.80
2019-04-02T01:14:30.028Z,70.20
2019-04-02T01:17:00.896Z,69.80
2019-04-02T01:19:30.670Z,70.00
2019-04-02T01:22:00.472Z,69.50
2019-04-02T01:24:30.210Z,69.90
2019-04-02T01:27:00.019Z,70.20
2019-04-02T01:29:29.798Z,70.40
2019-04-02T01:31:59.658Z,70.00
2019-04-02T01:34:29.592Z,70.30
2019-04-02T01:36:59.390Z,70.90
2019-04-02T01:39:30.236Z,70.00
2019-04-02T01:42:00.359Z,69.70
2019-04-02T01:44:30.016Z,69.60
2019-04-02T01:46:59.788Z,70.10
2019-04-02T01:49:29.554Z,69.90
2019-04-02T01:51:59.484Z,70.30
2019-04-02T01:54:29.369Z,69.40
2019-04-02T01:56:59.168Z,69.80
2019-04-02T01:59:29.026Z,69.60
2019-04-02T02:01:58.822Z,69.50
2019-04-02T02:04:28.684Z,69.80
2019-04-02T02:06:58.478Z,70.00
2019-04-02T02:09:28.294Z,69.60
2019-04-02T02:11:58.054Z,69.50
2019-04-02T02:14:28.045Z,69.50
2019-04-02T02:16:57.904Z,69.60
2019-04-02T02:19:27.740Z,69.40
2019-04-02T02:21:57.531Z,69.60
2019-04-02T02:24:27.322Z,69.30
2019-04-02T02:26:57.074Z,69.20
2019-04-02T02:29:26.882Z,69.70
2019-04-02T02:31:56.691Z,69.40
2019-04-02T02:34:26.458Z,69.40
2019-04-02T02:36:56.310Z,69.40
2019-04-02T02:39:26.106Z,69.20
2019-04-02T02:42:13.612Z,69.70
2019-04-02T02:44:44.287Z,70.20
2019-04-02T02:47:16.070Z,69.60
2019-04-02T02:49:48.380Z,69.50
2019-04-02T02:52:19.561Z,69.30
2019-04-02T02:54:51.356Z,69.00
2019-04-02T02:57:20.009Z,69.60
2019-04-02T02:59:50.175Z,69.30
2019-04-02T03:02:20.093Z,69.80
2019-04-02T03:04:50.021Z,69.40
2019-04-02T03:07:19.828Z,69.00
2019-04-02T03:09:49.890Z,69.40
2019-04-02T03:12:19.765Z,69.20
2019-04-02T03:14:52.532Z,69.10
2019-04-02T03:17:22.504Z,69.70
2019-04-02T03:19:52.193Z,70.00
2019-04-02T03:22:21.995Z,68.70
2019-04-02T03:24:51.772Z,69.10
2019-04-02T03:27:23.009Z,69.40
2019-04-02T03:29:55.109Z,69.70
2019-04-02T03:32:24.912Z,69.40
2019-04-02T03:34:57.733Z,69.30
2019-04-02T03:37:26.084Z,69.30
2019-04-02T03:39:55.984Z,69.50
2019-04-02T03:42:25.741Z,69.20
2019-04-02T03:44:55.475Z,69.50
2019-04-02T03:47:28.233Z,69.00
2019-04-02T03:49:58.024Z,69.00
2019-04-02T03:52:27.883Z,68.90
2019-04-02T03:54:57.815Z,69.20
2019-04-02T03:57:27.506Z,69.20
2019-04-02T03:59:57.299Z,69.30
2019-04-02T04:02:27.052Z,69.10
2019-04-02T04:04:56.854Z,69.20
2019-04-02T04:07:29.320Z,69.60
2019-04-02T04:09:58.926Z,68.90
2019-04-02T04:12:29.120Z,69.40
2019-04-02T04:14:59.016Z,69.60
2019-04-02T04:17:28.885Z,70.00
2019-04-02T04:19:58.636Z,69.40
2019-04-02T04:22:28.626Z,69.20
2019-04-02T04:24:58.995Z,69.10
2019-04-02T04:27:28.781Z,69.20
2019-04-02T04:29:58.609Z,69.80
2019-04-02T04:32:28.413Z,69.50
2019-04-02T04:34:58.223Z,69.30
2019-04-02T04:37:29.228Z,69.60
2019-04-02T04:40:02.304Z,69.90
2019-04-02T04:42:30.412Z,69.40
2019-04-02T04:45:00.669Z,69.60
2019-04-02T04:47:31.016Z,70.20
2019-04-02T04:50:01.011Z,69.80
2019-04-02T04:52:30.977Z,69.90
2019-04-02T04:55:00.740Z,69.50
2019-04-02T04:57:33.530Z,69.80
2019-04-02T05:00:02.191Z,69.90
2019-04-02T05:02:57.480Z,70.30
2019-04-02T05:05:28.383Z,69.70
2019-04-02T05:07:58.374Z,69.50
2019-04-02T05:10:28.953Z,69.70
2019-04-02T05:13:03.392Z,66.90
2019-04-02T05:15:38.711Z,69.10
2019-04-02T05:18:08.768Z,69.70
2019-04-02T05:20:38.941Z,69.80
2019-04-02T05:23:08.698Z,70.10
2019-04-02T05:25:38.447Z,70.10
2019-04-02T05:28:08.506Z,69.80
2019-04-02T05:30:38.981Z,70.30
2019-04-02T05:33:08.658Z,70.70
2019-04-02T05:35:38.473Z,70.30
2019-04-02T05:38:08.355Z,70.70
2019-04-02T05:40:38.122Z,70.50
2019-04-02T05:43:07.919Z,70.70
2019-04-02T05:45:37.609Z,70.40
2019-04-02T05:48:07.493Z,71.10
2019-04-02T05:50:37.255Z,70.00
2019-04-02T05:53:07.067Z,70.80
2019-04-02T05:55:36.839Z,72.10
2019-04-02T05:58:06.635Z,70.50
2019-04-02T06:00:36.593Z,70.90
2019-04-02T06:03:06.581Z,70.50
2019-04-02T06:05:37.480Z,70.80
2019-04-02T06:08:07.752Z,69.40
2019-04-02T06:10:37.561Z,69.30
2019-04-02T06:13:07.330Z,68.80
2019-04-02T06:15:37.161Z,68.30
2019-04-02T06:18:06.956Z,68.20
2019-04-02T06:20:36.770Z,68.00
2019-04-02T06:23:06.701Z,68.00
2019-04-02T06:25:36.502Z,67.90
2019-04-02T06:28:06.269Z,67.80
2019-04-02T06:30:36.147Z,67.80
2019-04-02T06:33:05.958Z,68.30
2019-04-02T06:35:35.761Z,67.90
2019-04-02T06:38:05.538Z,67.50
2019-04-02T06:40:38.017Z,67.40
2019-04-02T06:43:07.771Z,67.40
2019-04-02T06:45:37.547Z,67.50
2019-04-02T06:48:09.069Z,67.30
2019-04-02T06:50:43.303Z,67.50
2019-04-02T06:53:13.228Z,67.20
2019-04-02T06:55:45.059Z,67.40
2019-04-02T06:58:14.716Z,67.00
2019-04-02T07:00:44.664Z,67.20
2019-04-02T07:03:14.425Z,67.00
2019-04-02T07:05:44.235Z,66.80
2019-04-02T07:08:15.612Z,66.90
2019-04-02T07:10:45.947Z,66.80
2019-04-02T07:13:15.853Z,67.00
2019-04-02T07:15:45.764Z,67.10
2019-04-02T07:18:15.520Z,67.20
2019-04-02T07:20:45.391Z,66.80
2019-04-02T07:23:15.262Z,67.30
2019-04-02T07:25:45.015Z,67.50
2019-04-02T07:28:14.818Z,67.70
2019-04-02T07:30:44.700Z,67.70
2019-04-02T07:33:14.523Z,67.70
2019-04-02T07:35:44.377Z,67.70
2019-04-02T07:38:14.664Z,67.70
2019-04-02T07:40:44.589Z,68.00
2019-04-02T07:43:14.570Z,68.10
2019-04-02T07:45:44.341Z,68.30
2019-04-02T07:48:15.772Z,68.30
2019-04-02T07:50:45.553Z,68.50
2019-04-02T07:53:15.413Z,68.70
2019-04-02T07:55:45.224Z,68.60
2019-04-02T07:58:15.147Z,69.00
2019-04-02T08:00:45.030Z,68.30
2019-04-02T08:03:14.986Z,68.10
2019-04-02T08:05:44.894Z,68.00
2019-04-02T08:08:14.674Z,67.20
2019-04-02T08:10:44.659Z,66.90
2019-04-02T08:13:14.577Z,66.60
2019-04-02T08:15:44.512Z,66.20
2019-04-02T08:18:14.439Z,66.30
2019-04-02T08:20:47.280Z,66.70
2019-04-02T08:23:17.243Z,66.50
2019-04-02T08:25:47.130Z,66.30
2019-04-02T08:28:16.880Z,66.60
2019-04-02T08:30:47.434Z,65.80
2019-04-02T08:33:17.777Z,65.80
2019-04-02T08:35:47.640Z,66.00
2019-04-02T08:38:17.552Z,66.40
2019-04-02T08:40:47.435Z,65.90
2019-04-02T08:43:18.286Z,65.90
2019-04-02T08:45:48.511Z,66.20
2019-04-02T08:48:18.320Z,65.70
2019-04-02T08:50:48.286Z,66.10
2019-04-02T08:53:18.155Z,66.50
2019-04-02T08:55:47.919Z,66.00
2019-04-02T08:58:17.730Z,66.20
2019-04-02T09:00:59.547Z,66.40
2019-04-02T09:03:19.073Z,66.80
2019-04-02T09:05:48.831Z,66.80
2019-04-02T09:08:18.649Z,66.90
2019-04-02T09:10:48.461Z,67.20
2019-04-02T09:13:18.343Z,67.10
2019-04-02T09:15:48.101Z,67.10
2019-04-02T09:18:17.898Z,66.90
2019-04-02T09:20:47.824Z,66.90
2019-04-02T09:23:17.700Z,66.20
2019-04-02T09:25:47.519Z,65.50
2019-04-02T09:28:17.685Z,65.90
2019-04-02T09:30:47.454Z,65.10
2019-04-02T09:33:17.183Z,66.10
2019-04-02T09:35:47.013Z,66.30
2019-04-02T09:38:16.813Z,66.10
2019-04-02T09:40:47.064Z,65.40
2019-04-02T09:43:17.007Z,65.30
2019-04-02T09:45:46.768Z,65.60
2019-04-02T09:48:16.570Z,65.70
2019-04-02T09:50:46.327Z,65.50
2019-04-02T09:53:16.132Z,65.70
2019-04-02T09:55:49.102Z,65.40
2019-04-02T09:58:17.845Z,65.40
2019-04-02T10:00:47.649Z,65.00
2019-04-02T10:03:17.621Z,64.70
2019-04-02T10:05:47.454Z,64.20
2019-04-02T10:08:17.220Z,65.10
2019-04-02T10:10:47.104Z,64.50
2019-04-02T10:13:16.854Z,65.10
2019-04-02T10:15:46.956Z,65.40
2019-04-02T10:18:17.047Z,65.50
2019-04-02T10:20:46.863Z,65.70
2019-04-02T10:23:16.852Z,63.80
2019-04-02T10:25:47.044Z,64.20
2019-04-02T10:28:17.094Z,64.60
2019-04-02T10:30:46.974Z,65.00
2019-04-02T10:33:16.838Z,64.80
2019-04-02T10:35:46.862Z,65.00
2019-04-02T10:38:17.058Z,64.80
2019-04-02T10:40:47.288Z,65.00
2019-04-02T10:43:17.046Z,60.40
2019-04-02T10:45:46.817Z,61.60
2019-04-02T10:48:16.719Z,63.40
2019-04-02T10:50:46.550Z,64.00
2019-04-02T10:53:16.510Z,65.50
2019-04-02T10:55:46.344Z,65.50
2019-04-02T10:58:16.257Z,65.70
2019-04-02T11:00:46.966Z,65.80
2019-04-02T11:03:16.895Z,65.00
2019-04-02T11:05:47.106Z,65.30
2019-04-02T11:08:17.609Z,65.20
2019-04-02T11:10:48.302Z,66.80
2019-04-02T11:13:18.164Z,66.90
2019-04-02T11:15:48.080Z,67.50
2019-04-02T11:18:18.003Z,67.50
2019-04-02T11:20:47.848Z,67.60
2019-04-02T11:23:17.710Z,67.60
2019-04-02T11:25:47.986Z,68.00
2019-04-02T11:28:18.163Z,68.20
2019-04-02T11:30:48.030Z,67.80
2019-04-02T11:33:17.797Z,66.90
2019-04-02T11:35:47.617Z,67.00
2019-04-02T11:38:17.466Z,66.20
2019-04-02T11:40:47.345Z,66.20
2019-04-02T11:43:17.311Z,66.40
2019-04-02T11:45:47.172Z,65.90
2019-04-02T11:48:16.992Z,66.50
2019-04-02T11:50:46.748Z,67.00
2019-04-02T11:53:16.676Z,66.70
2019-04-02T11:55:46.449Z,66.70
2019-04-02T11:58:17.380Z,66.80
2019-04-02T12:00:49.115Z,65.90
2019-04-02T12:03:18.916Z,66.30
2019-04-02T12:05:48.731Z,65.80
2019-04-02T12:08:18.796Z,66.10
2019-04-02T12:10:49.423Z,66.30
2019-04-02T12:13:19.389Z,66.10
2019-04-02T12:15:50.463Z,66.50
2019-04-02T12:18:20.444Z,66.30
2019-04-02T12:20:50.273Z,66.20
2019-04-02T12:23:20.144Z,66.30
2019-04-02T12:25:50.127Z,66.40
2019-04-02T12:28:19.930Z,66.50
2019-04-02T12:30:50.066Z,66.40
2019-04-02T12:33:19.938Z,66.80
2019-04-02T12:35:49.805Z,66.60
2019-04-02T12:38:19.661Z,66.80
2019-04-02T12:40:49.500Z,66.40
2019-04-02T12:43:19.367Z,66.40
2019-04-02T12:45:49.147Z,66.70
2019-04-02T12:48:19.807Z,67.20
2019-04-02T12:50:49.724Z,67.00
2019-04-02T12:53:19.557Z,67.10
2019-04-02T12:55:49.487Z,66.70
2019-04-02T12:58:21.481Z,66.90
2019-04-02T13:00:50.942Z,67.20
2019-04-02T13:03:20.682Z,67.00
2019-04-02T13:05:58.476Z,67.30
2019-04-02T13:08:21.906Z,67.10
2019-04-02T13:10:51.961Z,67.40
2019-04-02T13:13:21.790Z,67.50
2019-04-02T13:15:51.654Z,67.60
2019-04-02T13:18:21.386Z,67.40
2019-04-02T13:20:51.163Z,67.60
2019-04-02T13:23:21.140Z,67.90
2019-04-02T13:25:51.058Z,67.30
2019-04-02T13:28:20.985Z,61.50
2019-04-02T13:30:50.876Z,59.30
2019-04-02T13:33:20.648Z,57.80
2019-04-02T13:35:50.528Z,57.50
2019-04-02T13:38:20.394Z,57.40
2019-04-02T13:40:52.439Z,57.40
2019-04-02T13:43:21.780Z,58.30
2019-04-02T13:45:51.624Z,58.50
2019-04-02T13:48:21.500Z,59.20
2019-04-02T13:50:51.408Z,59.20
2019-04-02T13:53:21.277Z,59.40
2019-04-02T13:55:51.189Z,59.80
2019-04-02T13:58:21.137Z,60.90
2019-04-02T14:00:53.983Z,61.30
2019-04-02T14:03:23.772Z,61.10
2019-04-02T14:05:54.913Z,60.80
2019-04-02T14:08:24.955Z,60.50
2019-04-02T14:10:55.349Z,61.10
2019-04-02T14:13:25.167Z,61.30
2019-04-02T14:15:55.303Z,61.50
2019-04-02T14:18:25.123Z,61.90
2019-04-02T14:20:54.928Z,61.60
2019-04-02T14:23:24.844Z,62.10
2019-04-02T14:25:54.687Z,62.10
2019-04-02T14:28:24.829Z,62.30
2019-04-02T14:30:56.297Z,63.30
2019-04-02T14:33:27.381Z,63.30
2019-04-02T14:35:57.345Z,62.70
2019-04-02T14:38:33.835Z,62.30
2019-04-02T14:40:58.825Z,62.10
2019-04-02T14:43:28.744Z,62.10
2019-04-02T14:45:58.493Z,62.20
2019-04-02T14:48:28.285Z,62.10
2019-04-02T14:50:58.086Z,62.40
2019-04-02T14:53:27.962Z,61.70
2019-04-02T14:55:57.696Z,61.40
2019-04-02T14:58:27.500Z,61.80
2019-04-02T15:00:58.813Z,61.80
2019-04-02T15:03:31.486Z,62.70
2019-04-02T15:06:00.326Z,62.60
2019-04-02T15:08:30.226Z,62.70
2019-04-02T15:11:00.002Z,63.20
2019-04-02T15:13:29.822Z,62.70
2019-04-02T15:15:59.680Z,62.70
2019-04-02T15:18:29.474Z,62.90
2019-04-02T15:20:59.401Z,62.70
2019-04-02T15:23:29.474Z,62.90
2019-04-02T15:25:59.318Z,63.30
2019-04-02T15:28:29.320Z,63.40
2019-04-02T15:30:59.233Z,63.20
2019-04-02T15:33:29.094Z,63.60
2019-04-02T15:35:59.059Z,64.10
2019-04-02T15:38:28.905Z,64.60
2019-04-02T15:40:58.845Z,64.50
2019-04-02T15:43:28.750Z,64.70
2019-04-02T15:45:58.614Z,65.10
2019-04-02T15:48:28.574Z,65.70
2019-04-02T15:50:58.381Z,65.50
2019-04-02T15:53:28.297Z,65.90
2019-04-02T15:55:58.080Z,65.80
2019-04-02T15:58:27.968Z,66.80
2019-04-02T16:00:58.444Z,66.00
2019-04-02T16:03:29.375Z,66.40
2019-04-02T16:05:59.263Z,66.00
2019-04-02T16:08:30.333Z,66.20
2019-04-02T16:11:00.179Z,66.50
2019-04-02T16:13:29.968Z,66.20
2019-04-02T16:16:00.256Z,66.10
2019-04-02T16:18:30.198Z,66.70
2019-04-02T16:21:00.084Z,66.00
2019-04-02T16:23:30.005Z,65.90
2019-04-02T16:25:59.788Z,65.80
2019-04-02T16:28:29.698Z,66.20
2019-04-02T16:30:59.732Z,66.50
2019-04-02T16:33:29.739Z,66.30
2019-04-02T16:35:59.612Z,66.10
2019-04-02T16:38:29.501Z,66.10
2019-04-02T16:40:59.345Z,65.80
2019-04-02T16:43:29.092Z,65.70
2019-04-02T16:45:58.941Z,64.50
2019-04-02T16:48:28.783Z,65.10
2019-04-02T16:50:58.634Z,65.20
2019-04-02T16:53:28.422Z,64.90
2019-04-02T16:55:58.302Z,65.80
2019-04-02T16:58:28.169Z,65.60
2019-04-02T17:00:58.094Z,66.20
2019-04-02T17:03:27.934Z,66.50
2019-04-02T17:05:58.235Z,66.60
2019-04-02T17:08:29.432Z,67.60
2019-04-02T17:11:01.788Z,67.70
2019-04-02T17:13:31.522Z,68.10
2019-04-02T17:16:01.615Z,69.50
2019-04-02T17:18:31.608Z,68.80
2019-04-02T17:21:04.151Z,69.10
2019-04-02T17:23:33.135Z,69.60
2019-04-02T17:26:03.066Z,70.10
2019-04-02T17:28:33.102Z,70.00
2019-04-02T17:31:03.518Z,70.30
2019-04-02T17:33:33.407Z,70.80
2019-04-02T17:36:03.343Z,71.10
2019-04-02T17:38:33.190Z,71.60
2019-04-02T17:41:05.029Z,72.00
2019-04-02T17:43:35.285Z,72.90
2019-04-02T17:46:05.776Z,72.80
2019-04-02T17:48:35.826Z,73.10
2019-04-02T17:51:06.974Z,73.40
2019-04-02T17:53:37.096Z,73.70
2019-04-02T17:56:07.081Z,74.00
2019-04-02T17:58:37.050Z,74.20
2019-04-02T18:01:07.342Z,74.80
2019-04-02T18:03:37.646Z,75.00
2019-04-02T18:06:07.886Z,75.10
2019-04-02T18:08:39.828Z,75.40
2019-04-02T18:11:09.935Z,75.60
2019-04-02T18:13:40.088Z,75.70
2019-04-02T18:16:16.740Z,76.00
2019-04-02T18:18:47.296Z,76.00
2019-04-02T18:21:17.692Z,76.50
2019-04-02T18:23:47.798Z,76.50
2019-04-02T18:26:17.855Z,76.90
2019-04-02T18:28:48.092Z,77.20
2019-04-02T18:31:18.050Z,77.60
2019-04-02T18:33:48.981Z,77.50
2019-04-02T18:36:19.581Z,77.50
2019-04-02T18:38:49.557Z,77.80
2019-04-02T18:41:19.695Z,77.80
2019-04-02T18:43:49.447Z,77.60
2019-04-02T18:46:20.668Z,77.20
2019-04-02T18:48:50.819Z,78.10
2019-04-02T18:51:21.819Z,78.40
2019-04-02T18:53:52.884Z,78.30
2019-04-02T18:56:24.277Z,78.20
2019-04-02T18:58:56.246Z,79.00
2019-04-02T19:01:27.794Z,79.10
2019-04-02T19:03:59.766Z,78.80
2019-04-02T19:06:30.072Z,78.90
2019-04-02T19:09:00.647Z,79.40
2019-04-02T19:11:31.000Z,79.80
2019-04-02T19:14:01.440Z,79.70
2019-04-02T19:16:31.349Z,80.50
2019-04-02T19:19:01.280Z,79.90
2019-04-02T19:21:31.154Z,80.30
2019-04-02T19:24:01.352Z,80.40
2019-04-02T19:26:31.660Z,80.30
2019-04-02T19:29:01.491Z,80.00
2019-04-02T19:31:31.323Z,80.10
2019-04-02T19:34:01.327Z,80.00
2019-04-02T19:36:31.238Z,80.60
2019-04-02T19:39:01.241Z,80.20
2019-04-02T19:41:32.654Z,80.30
2019-04-02T19:44:02.396Z,80.80
2019-04-02T19:46:32.292Z,80.90
2019-04-02T19:49:02.203Z,81.00
2019-04-02T19:51:32.179Z,81.20
2019-04-02T19:54:02.439Z,80.90
2019-04-02T19:56:32.285Z,80.70
2019-04-02T19:59:02.504Z,80.90
2019-04-02T20:01:34.481Z,80.70
2019-04-02T20:04:04.183Z,81.10
2019-04-02T20:06:35.749Z,80.70
2019-04-02T20:09:07.627Z,80.40
2019-04-02T20:11:37.442Z,80.70
2019-04-02T20:14:07.518Z,80.40
2019-04-02T20:16:40.821Z,80.60
2019-04-02T20:19:10.894Z,80.30
2019-04-02T20:21:40.880Z,80.40
2019-04-02T20:24:12.092Z,80.50
2019-04-02T20:26:41.862Z,80.80
2019-04-02T20:29:11.671Z,80.40
2019-04-02T20:31:44.185Z,80.00
2019-04-02T20:34:13.960Z,80.00
2019-04-02T20:36:43.779Z,80.50
2019-04-02T20:39:14.193Z,80.80
2019-04-02T20:41:44.032Z,80.60
2019-04-02T20:44:13.847Z,80.50
2019-04-02T20:46:43.683Z,81.10
2019-04-02T20:49:13.655Z,81.30
2019-04-02T20:51:43.580Z,81.10
2019-04-02T20:54:13.535Z,80.80
2019-04-02T20:56:43.410Z,81.00
2019-04-02T20:59:13.287Z,81.30
2019-04-02T21:01:52.822Z,81.40
2019-04-02T21:04:14.669Z,80.90
2019-04-02T21:06:45.274Z,80.90
2019-04-02T21:09:23.074Z,80.70
2019-04-02T21:11:46.788Z,80.80
2019-04-02T21:14:22.736Z,81.10
2019-04-02T21:16:48.242Z,81.50
2019-04-02T21:19:18.267Z,82.00
2019-04-02T21:21:48.626Z,82.60
2019-04-02T21:24:19.124Z,83.10
2019-04-02T21:26:51.273Z,83.50
2019-04-02T21:29:20.705Z,83.60
2019-04-02T21:31:50.698Z,83.50
2019-04-02T21:34:20.620Z,83.20
2019-04-02T21:36:50.471Z,83.00
2019-04-02T21:39:20.397Z,82.80
2019-04-02T21:41:50.251Z,83.40
2019-04-02T21:44:20.189Z,82.90
2019-04-02T21:46:49.955Z,83.10
2019-04-02T21:49:19.800Z,83.00
2019-04-02T21:51:49.577Z,83.60
2019-04-02T21:54:19.411Z,83.40
2019-04-02T21:56:49.178Z,83.80
2019-04-02T21:59:18.950Z,84.00
2019-04-02T22:01:48.733Z,83.80
2019-04-02T22:04:18.543Z,84.70
2019-04-02T22:06:48.364Z,85.10
2019-04-02T22:09:18.315Z,85.70
2019-04-02T22:11:48.134Z,85.70
2019-04-02T22:14:17.990Z,86.40
2019-04-02T22:16:48.847Z,86.40
2019-04-02T22:19:18.887Z,86.20
2019-04-02T22:21:48.706Z,86.90
2019-04-02T22:24:18.610Z,86.60
2019-04-02T22:26:48.579Z,87.20
2019-04-02T22:29:18.332Z,86.40
2019-04-02T22:31:48.232Z,86.90
2019-04-02T22:34:18.215Z,87.00
2019-04-02T22:36:48.171Z,86.70
2019-04-02T22:39:18.169Z,86.70
2019-04-02T22:41:48.250Z,86.80
2019-04-02T22:44:17.964Z,86.70
2019-04-02T22:46:47.701Z,86.30
2019-04-02T22:49:17.760Z,86.00
2019-04-02T22:51:47.547Z,86.70
2019-04-02T22:54:17.413Z,85.90
2019-04-02T22:56:47.110Z,86.30
2019-04-02T22:59:16.862Z,86.50
2019-04-02T23:01:46.640Z,86.90
2019-04-02T23:04:16.465Z,86.10
2019-04-02T23:06:46.241Z,86.90
2019-04-02T23:09:16.141Z,87.00
2019-04-02T23:11:45.974Z,86.70
2019-04-02T23:14:15.747Z,86.90
2019-04-02T23:16:54.677Z,86.90
2019-04-02T23:19:17.153Z,86.60
2019-04-02T23:21:47.246Z,86.50
2019-04-02T23:24:17.337Z,86.70
2019-04-02T23:26:48.705Z,86.10
2019-04-02T23:29:20.859Z,86.00
2019-04-02T23:31:50.493Z,86.60
2019-04-02T23:34:20.305Z,86.30
2019-04-02T23:36:50.268Z,85.80
2019-04-02T23:39:20.064Z,85.80
2019-04-02T23:41:49.883Z,85.60
2019-04-02T23:44:19.999Z,85.50
2019-04-02T23:46:49.801Z,85.40
2019-04-02T23:49:19.808Z,85.60
2019-04-02T23:51:49.611Z,85.30
2019-04-02T23:54:19.462Z,85.40
2019-04-02T23:56:49.566Z,85.50
2019-04-02T23:59:19.331Z,85.20
